Time;durP1;ratioP1;P1;durP2;ratioP2;P2;SDS_P1;SDS_P2;PMS_P1;PMS_P2;Temp;Humidity;BMP_temperature;BMP_pressure;BME280_temperature;BME280_humidity;BME280_pressure;Samples;Min_cycle;Max_cycle;Signal;HPM_P1;HPM_P2
2021/12/15 03:46:54;;;;;;;24.02;17.23;;;8.10;99.90;;;;;;4964406;24;20060;-80
2021/12/15 03:49:20;;;;;;;24.13;16.13;;;8.20;99.90;;;;;;4688656;30;20322;-80
2021/12/15 03:51:46;;;;;;;23.85;16.52;;;8.10;99.90;;;;;;4642963;30;20137;-80
2021/12/15 03:54:12;;;;;;;23.83;17.57;;;8.10;99.90;;;;;;4678204;30;20360;-80
2021/12/15 03:56:43;;;;;;;26.65;17.33;;;8.20;99.90;;;;;;4672165;30;20049;-82
2021/12/15 03:59:10;;;;;;;31.45;16.05;;;8.20;99.90;;;;;;4678144;30;20225;-80
2021/12/15 04:01:36;;;;;;;22.70;16.30;;;8.10;99.90;;;;;;4688710;30;20080;-80
2021/12/15 04:04:03;;;;;;;29.48;17.67;;;8.20;99.90;;;;;;4676573;30;20052;-80
2021/12/15 04:06:34;;;;;;;22.53;16.20;;;8.20;99.90;;;;;;4671976;30;20386;-80
2021/12/15 04:09:00;;;;;;;25.77;17.58;;;8.20;99.90;;;;;;4673177;30;20109;-80
2021/12/15 04:11:33;;;;;;;22.67;16.20;;;8.20;99.90;;;;;;4676901;30;20088;-80
2021/12/15 04:14:00;;;;;;;22.05;16.00;;;8.20;99.90;;;;;;4692033;30;20037;-80
2021/12/15 04:19:05;;;;;;;19.10;14.60;;;8.20;99.90;;;;;;4688996;30;20102;-80
2021/12/15 04:21:30;;;;;;;21.02;15.55;;;8.10;99.90;;;;;;4677668;30;20044;-80
2021/12/15 04:23:57;;;;;;;20.42;15.75;;;8.20;99.90;;;;;;4661188;30;20042;-80
2021/12/15 04:26:24;;;;;;;21.33;15.10;;;8.20;99.90;;;;;;4685579;30;20218;-80
2021/12/15 04:28:50;;;;;;;19.13;14.00;;;8.20;99.90;;;;;;4653079;30;20356;-80
2021/12/15 04:31:20;;;;;;;19.17;14.48;;;8.30;99.90;;;;;;4682339;30;20057;-81
2021/12/15 04:33:54;;;;;;;20.65;14.98;;;8.20;99.90;;;;;;4691145;30;20033;-80
2021/12/15 04:36:31;;;;;;;21.38;14.98;;;8.20;99.90;;;;;;4674394;30;20044;-81
2021/12/15 04:38:59;;;;;;;19.42;14.25;;;8.30;99.90;;;;;;4680264;30;20038;-81
2021/12/15 04:41:26;;;;;;;20.83;14.18;;;8.20;99.90;;;;;;4672289;30;20096;-81
2021/12/15 04:43:58;;;;;;;19.30;14.05;;;8.20;99.90;;;;;;4680707;30;20030;-81
2021/12/15 04:46:37;;;;;;;19.77;14.02;;;8.20;99.90;;;;;;4668648;30;20050;-82
2021/12/15 04:49:07;;;;;;;18.08;13.20;;;8.20;99.90;;;;;;4678260;30;20058;-81
2021/12/15 04:51:34;;;;;;;17.25;12.85;;;8.20;99.90;;;;;;4667055;30;20033;-81
2021/12/15 04:54:00;;;;;;;17.45;12.85;;;8.20;99.90;;;;;;4668000;30;20088;-81
2021/12/15 04:56:26;;;;;;;18.03;13.00;;;8.20;99.90;;;;;;4678355;30;20030;-81
2021/12/15 04:58:54;;;;;;;18.00;12.93;;;8.20;99.90;;;;;;4664328;30;20050;-81
2021/12/15 05:01:21;;;;;;;19.52;12.85;;;8.20;99.90;;;;;;4673047;30;20042;-81
2021/12/15 05:03:47;;;;;;;18.00;13.77;;;8.20;99.90;;;;;;4667575;30;20042;-81
2021/12/15 05:06:13;;;;;;;17.67;12.20;;;8.10;99.90;;;;;;4650756;30;20397;-81
2021/12/15 05:08:41;;;;;;;16.13;12.63;;;8.10;99.90;;;;;;4661432;30;20229;-81
2021/12/15 05:11:10;;;;;;;21.67;12.07;;;8.00;99.90;;;;;;4663873;30;20061;-80
2021/12/15 05:13:36;;;;;;;19.25;12.23;;;8.10;99.90;;;;;;4662925;30;20077;-82
2021/12/15 05:16:04;;;;;;;17.45;13.13;;;8.10;99.90;;;;;;4663792;30;20030;-82
2021/12/15 05:18:30;;;;;;;18.17;12.93;;;8.10;99.90;;;;;;4663432;30;20076;-82
2021/12/15 05:20:58;;;;;;;17.80;12.93;;;8.10;99.90;;;;;;4663943;30;20051;-82
2021/12/15 05:23:31;;;;;;;21.58;12.98;;;8.10;99.90;;;;;;4678267;30;20038;-80
2021/12/15 05:25:58;;;;;;;17.65;13.18;;;8.10;99.90;;;;;;4664047;30;20034;-81
2021/12/15 05:28:25;;;;;;;15.65;11.80;;;8.20;99.90;;;;;;4655951;30;20054;-81
2021/12/15 05:30:51;;;;;;;17.02;11.80;;;8.10;99.90;;;;;;4650700;30;20045;-81
2021/12/15 05:33:17;;;;;;;14.60;10.65;;;8.10;99.90;;;;;;4665024;30;20419;-80
2021/12/15 05:35:43;;;;;;;16.83;11.82;;;8.10;99.90;;;;;;4663653;30;20038;-81
2021/12/15 05:38:09;;;;;;;14.52;11.52;;;8.00;99.90;;;;;;4663815;30;20057;-81
2021/12/15 05:40:35;;;;;;;14.20;10.73;;;8.00;99.90;;;;;;4671539;30;20037;-82
2021/12/15 05:43:03;;;;;;;15.77;11.88;;;8.00;99.90;;;;;;4649514;30;20386;-82
2021/12/15 05:45:35;;;;;;;15.90;11.25;;;8.00;99.90;;;;;;4663985;30;20129;-82
2021/12/15 05:48:02;;;;;;;14.57;10.13;;;8.00;99.90;;;;;;4655446;30;20073;-81
2021/12/15 05:50:30;;;;;;;15.98;11.43;;;8.00;99.90;;;;;;4678220;30;20048;-82
2021/12/15 05:52:56;;;;;;;22.85;11.38;;;8.00;99.90;;;;;;4673325;30;20058;-81
2021/12/15 05:55:22;;;;;;;15.95;10.50;;;7.90;99.90;;;;;;4662649;30;20034;-81
2021/12/15 05:57:48;;;;;;;14.63;10.73;;;7.90;99.90;;;;;;4649209;30;20058;-81
2021/12/15 06:00:18;;;;;;;16.77;11.10;;;7.90;99.90;;;;;;4667676;30;20396;-80
2021/12/15 06:02:44;;;;;;;20.23;13.27;;;7.90;99.90;;;;;;4653740;30;20050;-82
2021/12/15 06:05:14;;;;;;;16.73;11.45;;;7.90;99.90;;;;;;4675174;30;20070;-82
2021/12/15 06:07:40;;;;;;;19.83;11.65;;;7.90;99.90;;;;;;4661326;30;20038;-82
2021/12/15 06:10:10;;;;;;;16.92;11.23;;;7.90;99.90;;;;;;4674240;30;20093;-82
2021/12/15 06:12:37;;;;;;;17.65;11.80;;;7.90;99.90;;;;;;4675100;30;20037;-82
2021/12/15 06:15:05;;;;;;;17.00;12.15;;;7.90;99.90;;;;;;4674627;30;20029;-82
2021/12/15 06:17:31;;;;;;;16.52;11.80;;;7.90;99.90;;;;;;4643317;30;20045;-82
2021/12/15 06:19:57;;;;;;;16.77;11.85;;;7.90;99.90;;;;;;4663470;30;20050;-82
2021/12/15 06:22:27;;;;;;;19.33;12.20;;;7.90;99.90;;;;;;4657964;30;20235;-82
2021/12/15 06:24:54;;;;;;;17.35;12.32;;;7.80;99.90;;;;;;4659670;30;20046;-82
2021/12/15 06:27:21;;;;;;;16.08;12.80;;;7.80;99.90;;;;;;4653044;30;20042;-82
2021/12/15 06:29:49;;;;;;;18.15;12.63;;;7.80;99.90;;;;;;4643793;30;20063;-82
2021/12/15 06:32:16;;;;;;;15.77;12.07;;;7.90;99.90;;;;;;4650580;30;20077;-82
2021/12/15 06:34:42;;;;;;;21.15;13.15;;;7.80;99.90;;;;;;4660085;30;20105;-82
2021/12/15 06:37:08;;;;;;;17.60;12.80;;;7.80;99.90;;;;;;4677542;30;20034;-82
2021/12/15 06:39:35;;;;;;;19.13;13.07;;;7.80;99.90;;;;;;4660791;30;20037;-82
2021/12/15 06:42:01;;;;;;;18.75;12.70;;;7.90;99.90;;;;;;4671470;30;20109;-82
2021/12/15 06:44:27;;;;;;;20.35;12.77;;;7.90;99.90;;;;;;4665899;30;20030;-82
2021/12/15 07:00:31;;;;;;;21.23;13.63;;;7.90;99.90;;;;;;4665837;30;20084;-82
2021/12/15 07:02:59;;;;;;;18.25;12.85;;;7.90;99.90;;;;;;4668575;30;20038;-81
2021/12/15 07:05:25;;;;;;;20.55;13.18;;;7.90;99.90;;;;;;4665598;30;20346;-81
2021/12/15 07:07:53;;;;;;;19.83;13.73;;;7.90;99.90;;;;;;4649129;30;20045;-81
2021/12/15 07:10:23;;;;;;;19.15;13.40;;;7.90;99.90;;;;;;4673679;30;20031;-81
2021/12/15 07:12:49;;;;;;;23.17;13.52;;;8.00;99.90;;;;;;4668474;30;20026;-82
2021/12/15 07:15:16;;;;;;;21.90;13.50;;;8.00;99.90;;;;;;4660619;30;20042;-82
2021/12/15 07:17:46;;;;;;;21.10;13.45;;;8.10;99.90;;;;;;4673763;30;20350;-82
2021/12/15 07:22:55;;;;;;;20.33;14.88;;;8.20;99.90;;;;;;4671587;30;20093;-82
2021/12/15 07:25:21;;;;;;;20.98;15.38;;;8.20;99.90;;;;;;4675596;30;20120;-82
2021/12/15 07:27:48;;;;;;;21.70;15.80;;;8.20;99.90;;;;;;4662259;30;20033;-82
2021/12/15 07:30:15;;;;;;;21.58;14.93;;;8.30;99.90;;;;;;4661625;30;20049;-82
2021/12/15 07:32:41;;;;;;;;;;;8.20;99.90;;;;;;4672826;30;20037;-82
2021/12/15 07:35:09;;;;;;;24.17;16.23;;;8.30;99.90;;;;;;4665469;30;19970;-82
2021/12/15 07:37:36;;;;;;;25.67;16.63;;;8.30;99.90;;;;;;4680310;30;20037;-82
2021/12/15 07:40:06;;;;;;;27.13;17.50;;;8.30;99.90;;;;;;4671571;30;20054;-82
2021/12/15 07:42:36;;;;;;;21.42;16.02;;;8.30;99.90;;;;;;4680045;30;20029;-82
2021/12/15 07:45:06;;;;;;;24.95;15.90;;;8.40;99.90;;;;;;4677179;30;20116;-82
2021/12/15 07:47:32;;;;;;;28.13;16.77;;;8.40;99.80;;;;;;4662621;30;20050;-82
2021/12/15 07:50:01;;;;;;;26.27;15.98;;;8.40;99.90;;;;;;4662509;30;20075;-82
2021/12/15 07:52:28;;;;;;;27.40;15.57;;;8.40;99.90;;;;;;4660506;30;20038;-82
2021/12/15 07:54:53;;;;;;;23.20;15.38;;;8.40;99.90;;;;;;4668973;30;20117;-82
2021/12/15 07:57:21;;;;;;;20.75;14.90;;;8.40;99.90;;;;;;4658984;30;20039;-82
2021/12/15 07:59:47;;;;;;;;;;;8.40;99.70;;;;;;4661153;30;20038;-82
2021/12/15 08:02:13;;;;;;;25.83;15.63;;;8.40;99.50;;;;;;4658712;30;19938;-82
2021/12/15 08:04:40;;;;;;;22.52;14.30;;;8.50;99.60;;;;;;4656696;30;20086;-82
2021/12/15 08:07:06;;;;;;;21.38;14.45;;;8.50;99.60;;;;;;4654851;30;20097;-82
2021/12/15 08:09:32;;;;;;;24.07;15.60;;;8.50;99.50;;;;;;4663044;30;20046;-82
2021/12/15 08:11:58;;;;;;;20.80;15.45;;;8.60;99.60;;;;;;4673897;30;20061;-82
2021/12/15 08:14:25;;;;;;;26.27;16.55;;;8.70;99.40;;;;;;4675414;30;20022;-82
2021/12/15 08:16:51;;;;;;;21.38;15.40;;;8.70;99.20;;;;;;4658858;30;20384;-82
2021/12/15 08:19:18;;;;;;;23.48;16.20;;;8.70;99.00;;;;;;4668867;30;20039;-82
2021/12/15 08:21:46;;;;;;;21.40;15.45;;;8.70;99.00;;;;;;4655960;30;20082;-82
2021/12/15 08:24:13;;;;;;;20.38;14.63;;;8.80;99.00;;;;;;4660580;30;20337;-82
2021/12/15 08:26:39;;;;;;;25.08;17.00;;;8.90;99.00;;;;;;4646023;30;20101;-82
2021/12/15 08:29:05;;;;;;;22.40;15.00;;;8.90;98.80;;;;;;4663002;30;20236;-82
2021/12/15 08:31:31;;;;;;;21.35;14.60;;;8.90;98.60;;;;;;4661902;30;20092;-82
2021/12/15 08:33:57;;;;;;;25.23;15.10;;;8.90;98.50;;;;;;4661320;30;20070;-82
2021/12/15 08:36:23;;;;;;;24.27;15.05;;;8.90;98.40;;;;;;4661558;30;20272;-82
2021/12/15 08:38:52;;;;;;;20.92;14.48;;;8.90;98.40;;;;;;4681046;30;20085;-82
2021/12/15 08:41:25;;;;;;;22.77;14.73;;;8.90;98.40;;;;;;4661026;30;20043;-82
2021/12/15 08:43:51;;;;;;;21.08;13.73;;;8.90;98.50;;;;;;4666788;30;20084;-83
2021/12/15 08:46:25;;;;;;;23.47;14.50;;;8.90;98.50;;;;;;4674013;30;20058;-82
2021/12/15 08:48:53;;;;;;;20.80;14.43;;;9.00;98.40;;;;;;4679734;30;20358;-82
2021/12/15 08:51:25;;;;;;;;;;;9.00;98.40;;;;;;4663611;30;20042;-83
2021/12/15 08:54:02;;;;;;;20.90;14.57;;;9.00;98.20;;;;;;4676344;30;20246;-82
2021/12/15 08:56:29;;;;;;;23.88;14.93;;;9.00;98.30;;;;;;4664050;30;20031;-82
2021/12/15 08:58:55;;;;;;;19.55;13.82;;;9.00;98.30;;;;;;4687661;30;20030;-82
2021/12/15 09:01:24;;;;;;;20.27;13.83;;;9.00;98.40;;;;;;4689315;30;20038;-82
2021/12/15 09:03:50;;;;;;;21.15;14.98;;;9.00;98.30;;;;;;4688837;30;20285;-82
2021/12/15 09:06:16;;;;;;;23.33;14.82;;;9.00;98.00;;;;;;4678257;30;20031;-82
2021/12/15 09:08:44;;;;;;;19.95;13.82;;;9.00;98.00;;;;;;4659980;30;20110;-82
2021/12/15 09:11:18;;;;;;;27.88;15.25;;;9.00;98.00;;;;;;4690324;30;20026;-82
2021/12/15 09:13:49;;;;;;;23.70;15.05;;;9.00;98.40;;;;;;4703658;30;20084;-82
2021/12/15 09:16:16;;;;;;;20.40;14.60;;;9.00;98.30;;;;;;4675598;30;20055;-82
2021/12/15 09:18:44;;;;;;;20.48;14.65;;;9.10;98.00;;;;;;4662128;30;20042;-83
2021/12/15 09:21:12;;;;;;;24.20;15.63;;;9.10;98.10;;;;;;4674106;30;20049;-83
2021/12/15 09:23:39;;;;;;;22.20;15.15;;;9.20;98.10;;;;;;4675153;30;20321;-82
2021/12/15 09:26:06;;;;;;;23.60;15.75;;;9.10;98.30;;;;;;4660418;30;20123;-82
2021/12/15 09:28:34;;;;;;;25.70;15.57;;;9.20;98.50;;;;;;4664342;30;20050;-81
2021/12/15 09:31:03;;;;;;;27.48;16.92;;;9.20;98.50;;;;;;4658683;30;20070;-82
2021/12/15 09:33:31;;;;;;;28.10;15.88;;;9.30;98.70;;;;;;4659734;30;20026;-82
2021/12/15 09:35:58;;;;;;;23.08;15.73;;;9.40;98.60;;;;;;4673548;30;20049;-82
2021/12/15 09:38:25;;;;;;;25.50;16.35;;;9.40;98.30;;;;;;4645738;30;20345;-82
2021/12/15 09:40:55;;;;;;;23.60;16.40;;;9.50;98.20;;;;;;4661435;30;20042;-82
2021/12/15 09:43:21;;;;;;;21.60;15.75;;;9.60;98.40;;;;;;4660285;30;20269;-81
2021/12/15 09:45:55;;;;;;;24.67;17.20;;;9.70;98.00;;;;;;4657513;30;20294;-82
2021/12/15 10:04:41;;;;;;;25.42;14.75;;;9.60;97.80;;;;;;4667253;30;20070;-82
2021/12/15 10:17:26;;;;;;;20.58;14.88;;;9.70;97.20;;;;;;4675852;30;20044;-80
2021/12/15 10:18:17;;;;;;;20.75;14.43;;;9.70;97.40;;;;;;4674345;30;20110;-81
2021/12/15 10:20:43;;;;;;;;;;;9.80;97.70;;;;;;4670236;30;20070;-81
2021/12/15 10:23:16;;;;;;;27.10;14.57;;;10.00;97.10;;;;;;4661162;30;20147;-80
2021/12/15 10:25:49;;;;;;;21.92;14.05;;;10.00;97.00;;;;;;4678738;30;20038;-81
2021/12/15 10:28:38;;;;;;;22.42;13.73;;;10.00;97.00;;;;;;4677772;30;20042;-82
2021/12/15 10:31:08;;;;;;;18.23;13.43;;;9.90;97.00;;;;;;4658630;30;20038;-82
2021/12/15 10:33:43;;;;;;;19.45;14.27;;;9.90;97.00;;;;;;4660539;30;20054;-81
2021/12/15 10:36:12;;;;;;;23.88;14.98;;;9.90;97.20;;;;;;4660093;30;20219;-81
2021/12/15 10:38:45;;;;;;;21.40;13.75;;;10.10;97.10;;;;;;4680873;30;20034;-82
2021/12/15 10:41:22;;;;;;;20.15;14.05;;;10.20;96.70;;;;;;4674021;30;20035;-82
2021/12/15 10:43:58;;;;;;;19.20;13.43;;;10.30;96.60;;;;;;4667631;30;20289;-83
2021/12/15 10:46:26;;;;;;;19.75;12.50;;;10.20;96.40;;;;;;4671662;30;20082;-82
2021/12/15 10:48:56;;;;;;;20.98;12.52;;;10.10;96.40;;;;;;4679335;30;20075;-82
2021/12/15 10:51:22;;;;;;;20.45;12.43;;;10.10;96.20;;;;;;4675855;30;20354;-82
2021/12/15 10:53:49;;;;;;;15.88;12.18;;;10.10;96.60;;;;;;4670272;30;20038;-82
2021/12/15 10:56:21;;;;;;;20.45;13.45;;;10.10;96.70;;;;;;4673449;30;20078;-82
2021/12/15 10:58:55;;;;;;;20.65;12.82;;;10.20;96.70;;;;;;4672904;30;20230;-80
2021/12/15 11:01:30;;;;;;;19.98;12.68;;;10.30;96.60;;;;;;4677739;30;20042;-81
2021/12/15 11:04:00;;;;;;;18.25;11.98;;;10.40;96.40;;;;;;4676215;30;20069;-81
2021/12/15 11:06:32;;;;;;;17.30;12.50;;;10.50;96.00;;;;;;4665636;30;20035;-81
2021/12/15 11:09:24;;;;;;;17.58;12.15;;;10.50;96.30;;;;;;4678262;30;20094;-81
2021/12/15 11:12:03;;;;;;;17.10;12.27;;;10.50;95.50;;;;;;4661544;30;20032;-81
2021/12/15 11:14:34;;;;;;;15.65;11.88;;;10.50;95.40;;;;;;4668682;30;20195;-81
2021/12/15 11:17:02;;;;;;;15.50;10.85;;;10.30;95.20;;;;;;4676118;30;20045;-81
2021/12/15 11:19:44;;;;;;;17.67;11.50;;;10.30;95.60;;;;;;4663094;30;20073;-80
2021/12/15 11:22:51;;;;;;;19.05;12.38;;;10.30;95.70;;;;;;4661567;30;20042;-82
2021/12/15 11:25:27;;;;;;;15.55;10.50;;;10.20;95.80;;;;;;4612608;31;20098;-82
2021/12/15 11:28:18;;;;;;;19.27;12.20;;;10.10;95.80;;;;;;4613192;31;20055;-82
2021/12/15 11:30:58;;;;;;;18.98;12.65;;;10.10;95.80;;;;;;4611949;31;20296;-82
2021/12/15 11:33:24;;;;;;;17.65;12.00;;;10.00;96.10;;;;;;4600625;31;20379;-81
2021/12/15 11:35:52;;;;;;;18.30;11.27;;;10.00;96.30;;;;;;4599386;31;20044;-81
2021/12/15 11:38:24;;;;;;;16.65;11.05;;;10.00;96.20;;;;;;4607321;31;20132;-82
2021/12/15 11:41:18;;;;;;;21.33;12.82;;;10.00;96.30;;;;;;4612418;31;20419;-82
2021/12/15 11:43:56;;;;;;;17.60;12.70;;;10.00;96.40;;;;;;4538950;31;20126;-82
2021/12/15 11:46:27;;;;;;;17.60;11.88;;;10.10;96.60;;;;;;4539297;31;20161;-82
2021/12/15 11:49:10;;;;;;;18.20;12.15;;;10.10;96.50;;;;;;4528038;31;20053;-81
2021/12/15 11:51:49;;;;;;;19.65;12.73;;;10.30;96.60;;;;;;4528399;31;20046;-82
2021/12/15 11:54:23;;;;;;;15.10;10.48;;;10.40;96.30;;;;;;4543562;31;20377;-82
2021/12/15 11:56:52;;;;;;;19.52;11.40;;;10.60;95.70;;;;;;4571170;31;20516;-81
2021/12/15 11:59:20;;;;;;;16.77;11.32;;;10.60;95.80;;;;;;4579478;31;20040;-81
2021/12/15 12:01:48;;;;;;;15.27;9.93;;;10.60;95.60;;;;;;4590694;31;20077;-82
2021/12/15 12:04:16;;;;;;;13.38;9.13;;;10.60;95.20;;;;;;4592283;31;20043;-81
2021/12/15 12:06:44;;;;;;;16.05;9.55;;;10.70;94.90;;;;;;4594546;31;20036;-82
2021/12/15 12:09:10;;;;;;;13.73;9.20;;;10.60;94.90;;;;;;4606425;31;20040;-82
2021/12/15 12:11:40;;;;;;;17.90;10.35;;;10.60;94.80;;;;;;4565191;31;20103;-82
2021/12/15 12:14:17;;;;;;;15.43;9.45;;;10.60;95.00;;;;;;4578278;31;20052;-81
2021/12/15 12:16:44;;;;;;;13.25;9.57;;;10.70;94.90;;;;;;4580939;31;20054;-81
2021/12/15 12:19:13;;;;;;;15.43;9.75;;;10.80;94.70;;;;;;4591221;31;20047;-82
2021/12/15 12:21:39;;;;;;;13.07;8.35;;;10.80;94.60;;;;;;4676464;30;20056;-82
2021/12/15 12:24:06;;;;;;;15.55;8.65;;;10.70;94.20;;;;;;4675859;30;20122;-82
2021/12/15 12:26:34;;;;;;;18.58;8.70;;;10.60;94.40;;;;;;4648898;30;20072;-82
2021/12/15 12:29:01;;;;;;;14.80;8.65;;;10.80;94.80;;;;;;4676636;30;20138;-81
2021/12/15 12:31:28;;;;;;;16.70;8.73;;;10.80;94.60;;;;;;4666145;30;20386;-81
2021/12/15 12:33:54;;;;;;;13.18;8.75;;;10.90;94.40;;;;;;4659302;30;20094;-81
2021/12/15 12:36:32;;;;;;;16.00;9.30;;;10.90;93.60;;;;;;4661325;30;20128;-82
2021/12/15 12:39:04;;;;;;;12.85;8.60;;;10.80;93.60;;;;;;4660910;30;20322;-82
2021/12/15 12:41:37;;;;;;;13.13;9.23;;;10.60;93.90;;;;;;4664333;30;20156;-82
2021/12/15 12:44:06;;;;;;;12.50;8.70;;;10.60;94.20;;;;;;4673551;30;20258;-82
2021/12/15 12:46:52;;;;;;;17.40;9.43;;;10.60;94.60;;;;;;4672730;30;20141;-82
2021/12/15 13:00:33;;;;;;;14.25;9.48;;;10.90;94.50;;;;;;4676703;30;20104;-82
2021/12/15 13:03:18;;;;;;;12.65;8.77;;;11.00;94.10;;;;;;4671174;30;20050;-82
2021/12/15 13:05:44;;;;;;;15.50;8.43;;;10.90;94.00;;;;;;4660752;30;20076;-82
2021/12/15 13:08:43;;;;;;;13.82;9.35;;;10.80;93.80;;;;;;4675080;30;20358;-82
2021/12/15 13:11:23;;;;;;;14.13;10.18;;;10.70;93.50;;;;;;4661703;30;20406;-81
2021/12/15 13:14:04;;;;;;;14.15;10.45;;;10.50;93.60;;;;;;4660921;30;20507;-82
2021/12/15 13:16:54;;;;;;;18.98;9.85;;;10.50;93.90;;;;;;4660756;30;20239;-82
2021/12/15 13:19:25;;;;;;;19.58;9.95;;;10.40;94.10;;;;;;4661697;30;20035;-82
2021/12/15 13:30:41;;;;;;;16.83;9.25;;;10.40;94.30;;;;;;4674640;30;20034;-82
2021/12/15 13:33:16;;;;;;;13.02;8.85;;;10.40;94.40;;;;;;4672928;30;20105;-82
2021/12/15 13:35:52;;;;;;;12.45;8.57;;;10.40;94.50;;;;;;4674367;30;20113;-82
2021/12/15 13:38:31;;;;;;;13.38;8.88;;;10.40;94.40;;;;;;4673896;30;20079;-82
2021/12/15 13:41:07;;;;;;;14.25;9.13;;;10.30;94.30;;;;;;4660242;30;20050;-82
2021/12/15 13:43:47;;;;;;;17.08;8.30;;;10.30;94.70;;;;;;4668476;30;20112;-82
2021/12/15 13:46:28;;;;;;;15.48;9.05;;;10.30;94.50;;;;;;4675125;30;20347;-82
2021/12/15 13:49:04;;;;;;;16.98;11.02;;;10.30;94.60;;;;;;4659279;30;20047;-82
2021/12/15 13:52:19;;;;;;;13.85;8.70;;;10.20;94.50;;;;;;4671486;30;20097;-82
2021/12/15 13:54:44;;;;;;;14.20;8.85;;;10.20;94.80;;;;;;4607386;31;20045;-83
2021/12/15 13:57:13;;;;;;;13.13;8.85;;;10.20;94.60;;;;;;4623204;31;20039;-83
2021/12/15 13:59:41;;;;;;;13.80;9.38;;;10.20;95.10;;;;;;4625304;31;20098;-81
2021/12/15 14:02:24;;;;;;;17.05;8.82;;;10.20;95.00;;;;;;4629534;31;20043;-82
2021/12/15 14:04:53;;;;;;;15.15;9.93;;;10.20;94.90;;;;;;4611814;31;20118;-81
2021/12/15 14:07:30;;;;;;;17.10;9.57;;;10.30;95.00;;;;;;4619692;30;20118;-81
2021/12/15 14:09:57;;;;;;;15.02;9.55;;;10.30;94.80;;;;;;4609996;31;20049;-81
2021/12/15 14:12:44;;;;;;;19.05;9.95;;;10.30;94.70;;;;;;4607535;30;20111;-81
2021/12/15 14:15:30;;;;;;;14.27;9.77;;;10.30;94.70;;;;;;4607935;31;20047;-81
2021/12/15 14:18:18;;;;;;;13.15;9.15;;;10.20;94.80;;;;;;4576166;31;20267;-81
2021/12/15 14:21:05;;;;;;;13.90;9.02;;;10.20;94.90;;;;;;4578768;31;20055;-82
2021/12/15 14:23:39;;;;;;;16.48;9.25;;;10.10;94.90;;;;;;4606606;31;20699;-82
2021/12/15 14:26:14;;;;;;;14.75;9.43;;;10.00;95.20;;;;;;4591846;31;20032;-82
2021/12/15 14:28:44;;;;;;;13.35;9.13;;;10.00;95.20;;;;;;4605503;31;20052;-81
2021/12/15 14:31:15;;;;;;;16.58;9.70;;;10.00;95.40;;;;;;4606941;30;20043;-81
2021/12/15 14:33:53;;;;;;;14.68;8.98;;;10.00;95.20;;;;;;4636925;30;20042;-81
2021/12/15 14:36:24;;;;;;;15.45;9.45;;;9.90;95.20;;;;;;4637034;30;20073;-81
2021/12/15 14:38:56;;;;;;;15.07;9.32;;;9.90;95.20;;;;;;4618173;30;20042;-82
2021/12/15 14:41:28;;;;;;;14.77;9.93;;;9.90;95.30;;;;;;4652966;30;20043;-82
2021/12/15 14:43:59;;;;;;;14.75;8.93;;;9.80;95.20;;;;;;4638427;30;20070;-82
2021/12/15 14:46:37;;;;;;;15.07;9.55;;;9.80;95.30;;;;;;4626314;30;20058;-82
2021/12/15 14:49:21;;;;;;;16.83;9.15;;;9.80;95.40;;;;;;4621361;30;20059;-81
2021/12/15 14:51:50;;;;;;;15.57;8.88;;;9.80;95.40;;;;;;4633306;30;20031;-82
2021/12/15 14:54:19;;;;;;;19.63;10.25;;;9.80;95.40;;;;;;4622034;30;20110;-82
2021/12/15 14:57:03;;;;;;;15.05;10.20;;;9.80;95.50;;;;;;4662114;30;20203;-82
2021/12/15 14:59:47;;;;;;;21.20;9.05;;;9.70;95.50;;;;;;4674756;30;20030;-82
2021/12/15 15:02:20;;;;;;;15.02;9.40;;;9.70;95.60;;;;;;4667212;30;20037;-83
2021/12/15 15:04:52;;;;;;;14.73;9.88;;;9.60;95.90;;;;;;4659117;30;20138;-82
2021/12/15 15:07:23;;;;;;;13.88;9.55;;;9.70;95.90;;;;;;4659336;30;20042;-82
2021/12/15 15:09:52;;;;;;;14.23;9.85;;;9.60;95.70;;;;;;4660351;30;20034;-82
2021/12/15 15:12:23;;;;;;;19.23;9.98;;;9.60;95.80;;;;;;4658517;30;20031;-83
2021/12/15 15:15:00;;;;;;;17.58;9.30;;;9.60;95.80;;;;;;4671475;30;20388;-83
2021/12/15 15:17:40;;;;;;;13.82;9.75;;;9.60;95.90;;;;;;4655900;30;20036;-82
2021/12/15 15:20:17;;;;;;;16.27;10.20;;;9.60;95.70;;;;;;4671314;30;20265;-82
2021/12/15 15:22:45;;;;;;;19.55;10.52;;;9.60;96.00;;;;;;4672170;30;20330;-82
2021/12/15 15:25:15;;;;;;;16.20;10.65;;;9.60;95.90;;;;;;4646223;30;20046;-83
2021/12/15 15:27:46;;;;;;;17.45;9.32;;;9.50;95.90;;;;;;4661885;30;20042;-82
2021/12/15 15:30:19;;;;;;;15.55;10.15;;;9.50;96.00;;;;;;4660161;30;20034;-83
2021/12/15 15:32:46;;;;;;;18.30;9.68;;;9.50;96.00;;;;;;4655919;30;20039;-82
2021/12/15 15:35:18;;;;;;;;;;;9.50;95.90;;;;;;4660904;30;20035;-82
2021/12/15 15:37:45;;;;;;;17.33;10.70;;;9.50;96.10;;;;;;4673419;30;19912;-82
2021/12/15 15:40:20;;;;;;;13.70;9.25;;;9.40;96.10;;;;;;4658524;30;20113;-82
2021/12/15 15:42:51;;;;;;;16.60;10.25;;;9.40;96.10;;;;;;4659792;30;20038;-82
2021/12/15 15:45:51;;;;;;;14.98;9.18;;;9.40;96.10;;;;;;4673947;30;20042;-81
2021/12/15 15:48:23;;;;;;;13.70;9.55;;;9.50;96.20;;;;;;4582909;31;20090;-82
2021/12/15 15:50:55;;;;;;;17.15;10.05;;;9.50;96.00;;;;;;4577768;31;20372;-83
2021/12/15 15:53:21;;;;;;;15.93;10.60;;;9.60;96.10;;;;;;4592492;31;20292;-82
2021/12/15 15:55:48;;;;;;;15.38;9.95;;;9.60;96.00;;;;;;4595183;31;20374;-83
2021/12/15 15:58:16;;;;;;;;;;;9.60;95.90;;;;;;4593890;31;20060;-83
2021/12/15 16:00:47;;;;;;;14.68;8.88;;;9.60;96.00;;;;;;4578847;31;19976;-83
2021/12/15 16:03:27;;;;;;;15.70;9.93;;;9.70;96.00;;;;;;4590731;31;20044;-83
2021/12/15 16:05:56;;;;;;;16.25;10.18;;;9.70;96.00;;;;;;4596656;31;20095;-83
2021/12/15 16:08:24;;;;;;;19.48;10.38;;;9.70;96.00;;;;;;4595588;31;20347;-83
2021/12/15 16:10:54;;;;;;;25.08;11.02;;;9.70;96.10;;;;;;4585982;31;20583;-83
2021/12/15 16:13:26;;;;;;;20.40;10.75;;;9.80;95.90;;;;;;4596637;31;20079;-83
2021/12/15 16:16:09;;;;;;;19.45;10.52;;;9.70;95.70;;;;;;4614914;31;20060;-83
2021/12/15 16:18:43;;;;;;;16.52;10.20;;;9.70;95.70;;;;;;4606881;31;20093;-82
2021/12/15 16:24:11;;;;;;;15.77;10.32;;;9.80;95.80;;;;;;4633834;30;20062;-83
2021/12/15 16:26:38;;;;;;;23.92;11.07;;;9.80;95.70;;;;;;4678117;30;20049;-83
2021/12/15 16:29:24;;;;;;;17.87;10.80;;;9.80;95.60;;;;;;4667122;30;20121;-83
2021/12/15 16:31:55;;;;;;;17.55;10.35;;;9.80;95.60;;;;;;4667984;30;20042;-83
2021/12/15 16:34:47;;;;;;;15.70;9.98;;;9.80;95.70;;;;;;4681408;30;20038;-83
2021/12/15 16:37:25;;;;;;;15.82;10.02;;;9.80;95.50;;;;;;4606050;31;20074;-83
2021/12/15 16:39:52;;;;;;;16.40;9.05;;;9.70;95.50;;;;;;4578299;31;20036;-82
2021/12/15 16:42:22;;;;;;;18.10;9.85;;;9.70;95.60;;;;;;4579214;31;20119;-83
2021/12/15 16:44:56;;;;;;;16.70;9.95;;;9.70;95.50;;;;;;4593742;31;20028;-83
2021/12/15 16:47:31;;;;;;;16.02;10.00;;;9.70;95.50;;;;;;4605733;31;20264;-83
2021/12/15 16:49:58;;;;;;;14.93;9.43;;;9.70;95.50;;;;;;4604262;31;20088;-83
2021/12/15 16:52:30;;;;;;;15.15;10.10;;;9.70;95.50;;;;;;4592693;31;20051;-83
2021/12/15 16:55:15;;;;;;;14.57;9.13;;;9.70;95.50;;;;;;4606666;31;20052;-83
2021/12/15 16:57:46;;;;;;;18.52;9.75;;;9.70;95.50;;;;;;4590752;31;20374;-83
2021/12/15 17:00:20;;;;;;;16.08;9.82;;;9.70;95.50;;;;;;4577347;31;20381;-83
2021/12/15 17:02:53;;;;;;;17.17;9.07;;;9.70;95.50;;;;;;4592528;31;20153;-83
2021/12/15 17:05:43;;;;;;;22.65;9.23;;;9.70;95.40;;;;;;4594525;31;20054;-83
2021/12/15 17:08:21;;;;;;;17.27;9.70;;;9.70;95.10;;;;;;4592638;31;20056;-83
2021/12/15 17:10:53;;;;;;;14.93;9.75;;;9.70;95.40;;;;;;4572802;31;20033;-83
2021/12/15 17:13:23;;;;;;;17.95;9.98;;;9.70;95.50;;;;;;4623659;30;20057;-83
2021/12/15 17:15:56;;;;;;;17.25;9.23;;;9.70;95.50;;;;;;4678376;30;20113;-83
2021/12/15 17:18:29;;;;;;;18.75;9.25;;;9.60;95.60;;;;;;4661404;30;20138;-81
2021/12/15 17:21:01;;;;;;;15.50;9.27;;;9.60;95.50;;;;;;4692208;30;20030;-81
2021/12/15 17:23:37;;;;;;;17.38;10.13;;;9.70;95.70;;;;;;4674607;30;20100;-82
2021/12/15 17:26:29;;;;;;;14.52;9.20;;;9.60;95.50;;;;;;4675346;30;20038;-82
2021/12/15 17:28:59;;;;;;;17.83;9.20;;;9.60;95.50;;;;;;4663599;30;20059;-82
2021/12/15 17:31:32;;;;;;;12.98;8.48;;;9.60;95.50;;;;;;4660572;30;20225;-82
2021/12/15 17:34:08;;;;;;;16.27;9.63;;;9.60;95.60;;;;;;4666925;30;20334;-82
2021/12/15 17:36:36;;;;;;;16.20;9.75;;;9.60;95.50;;;;;;4662737;30;20318;-82
2021/12/15 17:39:30;;;;;;;15.13;9.48;;;9.60;95.60;;;;;;4674460;30;20085;-81
2021/12/15 17:42:14;;;;;;;;;;;9.60;95.60;;;;;;4673478;30;20084;-82
2021/12/15 17:44:52;;;;;;;15.43;8.63;;;9.60;95.60;;;;;;4659665;30;19975;-82
2021/12/15 17:47:53;;;;;;;14.40;9.55;;;9.50;95.70;;;;;;4677757;30;20057;-82
2021/12/15 17:50:24;;;;;;;18.80;10.55;;;9.40;95.70;;;;;;4589062;31;20048;-83
2021/12/15 17:52:56;;;;;;;14.90;9.60;;;9.40;95.90;;;;;;4587829;31;20052;-82